Time,TemperatureF,DewpointF,PressureIn,WindDirection,WindDirectionDegrees,WindSpeedMPH,WindSpeedGustMPH,Humidity,HourlyPrecipIn,Conditions,Clouds,dailyrainin,SoftwareType,DateUTC
2013-10-02 00:12:00,62.1,59.7,29.72,West,259,0.0,0.0,92,0.00,,,0.00,Wunderground v.1.15,2013-10-02 04:12:00,
2013-10-02 00:42:00,61.3,59.6,29.73,West,259,0.0,0.0,94,0.00,,,0.00,Wunderground v.1.15,2013-10-02 04:42:00,
2013-10-02 01:12:00,61.5,59.5,29.73,West,259,0.0,0.0,93,0.00,,,0.00,Wunderground v.1.15,2013-10-02 05:12:00,
2013-10-02 01:42:00,61.0,59.0,29.73,West,259,0.0,0.0,93,0.00,,,0.00,Wunderground v.1.15,2013-10-02 05:42:00,
2013-10-02 02:12:00,60.0,58.3,29.73,West,259,0.0,0.0,94,0.00,,,0.00,Wunderground v.1.15,2013-10-02 06:12:00,
2013-10-02 02:42:00,59.5,58.1,29.72,West,259,0.0,0.0,95,0.00,,,0.00,Wunderground v.1.15,2013-10-02 06:42:00,
2013-10-02 03:12:00,59.0,57.6,29.73,West,259,0.0,0.0,95,0.00,,,0.00,Wunderground v.1.15,2013-10-02 07:12:00,
2013-10-02 03:42:00,58.9,57.8,29.73,West,259,0.0,0.0,96,0.00,,,0.00,Wunderground v.1.15,2013-10-02 07:42:00,
2013-10-02 04:12:00,58.7,57.6,29.72,West,259,0.0,0.0,96,0.00,,,0.00,Wunderground v.1.15,2013-10-02 08:12:00,
2013-10-02 04:42:00,58.4,57.6,29.73,West,259,0.0,0.0,97,0.00,,,0.00,Wunderground v.1.15,2013-10-02 08:42:00,
2013-10-02 05:12:00,57.6,56.8,29.73,West,259,0.0,0.0,97,0.00,,,0.00,Wunderground v.1.15,2013-10-02 09:12:00,
2013-10-02 05:42:00,57.6,56.8,29.74,West,259,0.0,0.0,97,0.00,,,0.00,Wunderground v.1.15,2013-10-02 09:42:00,
2013-10-02 06:12:00,57.4,56.6,29.74,West,259,0.0,0.0,97,0.00,,,0.00,Wunderground v.1.15,2013-10-02 10:12:00,
2013-10-02 06:42:00,56.7,56.1,29.74,West,259,0.0,0.0,98,0.00,,,0.00,Wunderground v.1.15,2013-10-02 10:42:00,
2013-10-02 07:12:00,56.8,56.2,29.74,West,259,0.0,0.0,98,0.00,,,0.00,Wunderground v.1.15,2013-10-02 11:12:00,
2013-10-02 07:42:00,57.5,56.9,29.75,West,259,0.0,0.0,98,0.00,,,0.00,Wunderground v.1.15,2013-10-02 11:42:00,
2013-10-02 08:12:00,60.5,59.6,29.75,West,259,0.0,0.0,97,0.00,,,0.00,Wunderground v.1.15,2013-10-02 12:12:00,
2013-10-02 08:42:00,64.7,61.1,29.76,West,260,0.0,0.0,88,0.00,,,0.00,Wunderground v.1.15,2013-10-02 12:42:00,
2013-10-02 09:42:00,70.3,62.4,29.76,SSE,161,0.0,1.0,76,0.00,,,0.00,Wunderground v.1.15,2013-10-02 13:42:00,
2013-10-02 10:12:00,70.4,63.2,29.76,West,263,1.0,2.0,78,0.00,,,0.00,Wunderground v.1.15,2013-10-02 14:12:00,
2013-10-02 10:42:00,-999.9,-99.9,29.75,West,259,2.0,5.0,71,0.00,,,0.00,Wunderground v.1.15,2013-10-02 14:42:00,
2013-10-02 11:12:00,-999.9,-99.9,29.75,NW,309,1.0,1.0,66,0.00,,,0.00,Wunderground v.1.15,2013-10-02 15:12:00,
2013-10-02 11:42:00,-999.9,-99.9,29.75,NW,307,2.0,9.0,64,0.00,,,0.00,Wunderground v.1.15,2013-10-02 15:42:00,
2013-10-02 12:12:00,-999.9,-99.9,29.73,WSW,257,4.0,4.0,62,0.00,,,0.00,Wunderground v.1.15,2013-10-02 16:12:00,
2013-10-02 12:42:00,-999.9,-99.9,29.72,West,270,3.0,9.0,60,0.00,,,0.00,Wunderground v.1.15,2013-10-02 16:42:00,
2013-10-02 13:42:00,-999.9,-99.9,29.71,West,273,2.0,9.0,58,0.00,,,0.00,Wunderground v.1.15,2013-10-02 17:42:00,
2013-10-02 14:12:00,-999.9,-99.9,29.70,WSW,253,2.0,2.0,57,0.00,,,0.00,Wunderground v.1.15,2013-10-02 18:12:00,
2013-10-02 14:42:00,-999.9,-99.9,29.70,WSW,241,4.0,4.0,56,0.00,,,0.00,Wunderground v.1.15,2013-10-02 18:42:00,
2013-10-02 15:12:00,-999.9,-99.9,29.69,WSW,257,1.0,1.0,52,0.00,,,0.00,Wunderground v.1.15,2013-10-02 19:12:00,
2013-10-02 15:42:00,-999.9,-99.9,29.69,WSW,250,1.0,1.0,54,0.00,,,0.00,Wunderground v.1.15,2013-10-02 19:42:00,
2013-10-02 16:12:00,-999.9,-99.9,29.69,West,269,3.0,4.0,57,0.00,,,0.00,Wunderground v.1.15,2013-10-02 20:12:00,
2013-10-02 16:42:00,-999.9,-99.9,29.69,West,261,1.0,1.0,55,0.00,,,0.00,Wunderground v.1.15,2013-10-02 20:42:00,
2013-10-02 17:12:00,-999.9,-99.9,29.69,WSW,252,3.0,3.0,56,0.00,,,0.00,Wunderground v.1.15,2013-10-02 21:12:00,
2013-10-02 17:42:00,-999.9,-99.9,29.69,West,266,1.0,1.0,57,0.00,,,0.00,Wunderground v.1.15,2013-10-02 21:42:00,
2013-10-02 18:12:00,-999.9,-99.9,29.70,SW,225,0.0,0.0,60,0.00,,,0.00,Wunderground v.1.15,2013-10-02 22:12:00,
2013-10-02 18:42:00,-999.9,-99.9,29.70,WSW,258,0.0,1.0,64,0.00,,,0.00,Wunderground v.1.15,2013-10-02 22:42:00,
2013-10-02 19:12:00,-999.9,-99.9,29.71,WSW,254,0.0,0.0,67,0.00,,,0.00,Wunderground v.1.15,2013-10-02 23:12:00,
2013-10-02 19:42:00,-999.9,-99.9,29.73,WSW,254,0.0,0.0,67,0.00,,,0.00,Wunderground v.1.15,2013-10-02 23:42:00,
2013-10-02 20:12:00,-999.9,-99.9,29.74,WSW,254,0.0,0.0,69,0.00,,,0.00,Wunderground v.1.15,2013-10-03 00:12:00,
2013-10-02 20:42:00,74.4,64.0,29.75,WSW,254,0.0,0.0,70,0.00,,,0.00,Wunderground v.1.15,2013-10-03 00:42:00,
2013-10-02 21:12:00,72.8,63.2,29.75,WSW,254,0.0,0.0,72,0.00,,,0.00,Wunderground v.1.15,2013-10-03 01:12:00,
2013-10-02 21:42:00,72.1,63.0,29.76,WSW,253,0.0,0.0,73,0.00,,,0.00,Wunderground v.1.15,2013-10-03 01:42:00,
2013-10-02 22:12:00,69.3,62.5,29.77,WSW,254,0.0,0.0,79,0.00,,,0.00,Wunderground v.1.15,2013-10-03 02:12:00,
2013-10-02 22:42:00,67.3,62.0,29.78,WSW,253,0.0,0.0,83,0.00,,,0.00,Wunderground v.1.15,2013-10-03 02:42:00,
2013-10-02 23:12:00,67.1,62.1,29.78,WSW,254,0.0,0.0,84,0.00,,,0.00,Wunderground v.1.15,2013-10-03 03:12:00,
2013-10-02 23:42:00,66.6,61.9,29.79,WSW,253,0.0,0.0,85,0.00,,,0.00,Wunderground v.1.15,2013-10-03 03:42:00,